Nome, AK (99762)

5:49 PM AKDT on September 23, 2014 (GMT -0800)
Nome | Change Station
CLOSE
Current Station
Airport
Location: Nome,
Elevation: 36 ft
Nearby Weather Stations

Elev 36 ft 64.51 °N, 165.45 °W | Updated 56 minutes ago

Scattered Clouds
Scattered Clouds
43 °F
Feels Like 40 °F
N
6
Wind Variable Wind from SSE

Today
High -- | Low -- °F
--% Chance of Precip.
Yesterday
High -- | Low -- °F
Precip. -- in
8:48 AM 8:57 PM
Waning Crescent, 0% visible
Pressure 29.96 in
Visibility 10.0 miles
Clouds Scattered Clouds 3000 ft
Scattered Clouds 20000 ft
Windchill 40 °F
Dew Point 31 °F
Humidity 62%
Rainfall 0.00 in
Snow Depth 1 in , 1 in , 0 in
UV 1 out of 12
Pollen Not available.
Air Quality Not available.
Flu Activity Not available.
METAR PAOM 240053Z 16005KT 10SM SCT030 SCT200 06/M01 A2996 RMK SLP146 T00611006 $ VIA AUTODIAL

More Conditions Fewer Conditions

Pressure 29.96 in
Visibility 10.0 miles
Clouds Scattered Clouds 3000 ft
Scattered Clouds 20000 ft
Windchill 40 °F
Dew Point 31 °F
Humidity 62%
Rainfall 0.00 in
Snow Depth 1 in , 1 in , 0 in
UV 1 out of 12
Pollen Not available.
Air Quality Not available.
Flu Activity Not available.
METAR PAOM 240053Z 16005KT 10SM SCT030 SCT200 06/M01 A2996 RMK SLP146 T00611006 $ VIA AUTODIAL

More Conditions Fewer Conditions

10-Day Weather Forecast

Almanac

Astronomy

Sep. 23, 2014 Rise Set
Actual Time 8:48 AM AKDT 8:57 PM AKDT
Civil Twilight 7:59 AM AKDT 9:46 PM AKDT
Nautical Twilight 7:00 AM AKDT 10:44 PM AKDT
Astronomical Twilight 5:52 AM AKDT 11:51 PM AKDT
Moon 8:25 AM AKDT (9/23) 8:33 PM AKDT (9/23)
Length of Visible Light 13h 46m
Length of Day
12h 09m
Tomorrow will be 6m 32s shorter.
Waning Crescent, 0% of the Moon is Illuminated
Today
Waning Crescent
Sep 24
New
Oct 1
First Quarter
Oct 8
Full
Oct 15
Last Quarter

Today's Extremes

State Highs State Lows

Community

WunderPhotos

Upload Photos

1,755,844 photos uploaded!

Nearby

Snow Depth

Station Depth Elevation
Upper Chena 1 in 2850 ft
Point Mackenzie 1 in 200 ft
Fort Yukon 0 in 430 ft
Gobblers Knob 3 in 2030 ft
Coldfoot 2 in 1040 ft

Earthquake Activity

City Distance Mag. Time & Date
No recent earthquake activity has been reported nearby.
Minimum magnitude displayed is 2.5.

Coastal Water Temperatures

Place Temperature
No Stations Reporting

Nearby Weather Stations